Ke-Macina Airport


Codes: GAKM/
Name: Ke-Macina Airport
City: Ke-Macina
Country: Mali
Elevation: 902 ft.

Photos at Ke-Macina Airport


   Photos courtesy of SpottingLog. You can add your own sightings and photos by signing up for a free trial today.



No photos found.

Weather at Ke-Macina Airport


Time (UTC)DescriptionTempratureWindCloud coverageVisibilityPressureHumidity
13-Jun-2024 03:00Overcast Clouds33°C7 mph, S86%10000m1010hPa41%
13-Jun-2024 06:00Overcast Clouds32°C7 mph, S85%10000m1010hPa43%
13-Jun-2024 09:00Broken Clouds34°C7 mph, S80%10000m1012hPa36%
13-Jun-2024 12:00Broken Clouds38°C7 mph, SE84%10000m1011hPa28%
13-Jun-2024 15:00Overcast Clouds40°C9 mph, SE86%10000m1007hPa22%
13-Jun-2024 18:00Light Rain39°C16 mph, SE75%10000m1006hPa22%
13-Jun-2024 21:00Broken Clouds36°C11 mph, SE60%10000m1009hPa29%
14-Jun-2024 00:00Scattered Clouds35°C4 mph, SE47%10000m1009hPa32%
14-Jun-2024 03:00Light Rain33°C7 mph, S21%10000m1009hPa36%
14-Jun-2024 06:00Light Rain31°C13 mph, SW19%10000m1011hPa50%
14-Jun-2024 09:00Clear Sky34°C16 mph, SW9%10000m1012hPa40%
14-Jun-2024 12:00Clear Sky38°C13 mph, SW9%10000m1010hPa31%
14-Jun-2024 15:00Clear Sky40°C9 mph, S7%10000m1007hPa26%
14-Jun-2024 18:00Clear Sky39°C7 mph, SE8%10000m1007hPa26%
14-Jun-2024 21:00Clear Sky37°C2 mph, E6%10000m1008hPa28%
15-Jun-2024 00:00Clear Sky31°C20 mph, S8%10000m1009hPa48%
15-Jun-2024 03:00Moderate Rain29°C16 mph, W85%10000m1009hPa57%
15-Jun-2024 06:00Overcast Clouds30°C13 mph, SW85%10000m1008hPa45%
15-Jun-2024 09:00Broken Clouds33°C18 mph, SW80%10000m1010hPa45%
15-Jun-2024 12:00Broken Clouds37°C16 mph, SW66%10000m1010hPa35%
15-Jun-2024 15:00Scattered Clouds39°C13 mph, W42%10000m1006hPa28%
15-Jun-2024 18:00Scattered Clouds39°C7 mph, W33%10000m1006hPa27%
15-Jun-2024 21:00Clear Sky37°C9 mph, SW1%10000m1006hPa30%
16-Jun-2024 00:00Few Clouds36°C7 mph, W17%10000m1006hPa33%
16-Jun-2024 03:00Broken Clouds34°C18 mph, SW83%10000m1005hPa41%
16-Jun-2024 06:00Overcast Clouds28°C25 mph, SW85%10000m1008hPa64%
16-Jun-2024 09:00Overcast Clouds30°C25 mph, SW88%10000m1010hPa55%
16-Jun-2024 12:00Broken Clouds33°C22 mph, SW76%10000m1010hPa46%
16-Jun-2024 15:00Light Rain35°C16 mph, SW99%10000m1008hPa37%
16-Jun-2024 18:00Light Rain27°C27 mph, NE100%10000m1011hPa66%
16-Jun-2024 21:00Light Rain30°C11 mph, SW100%10000m1008hPa49%
17-Jun-2024 00:00Overcast Clouds29°C9 mph, SW100%10000m1010hPa54%
17-Jun-2024 03:00Overcast Clouds29°C11 mph, S100%10000m1010hPa56%
17-Jun-2024 06:00Overcast Clouds27°C13 mph, S100%10000m1011hPa65%
17-Jun-2024 09:00Overcast Clouds29°C11 mph, S98%10000m1012hPa55%
17-Jun-2024 12:00Overcast Clouds32°C11 mph, SW98%10000m1011hPa46%
17-Jun-2024 15:00Scattered Clouds36°C9 mph, S26%10000m1008hPa31%
17-Jun-2024 18:00Broken Clouds35°C2 mph, S65%10000m1008hPa32%
17-Jun-2024 21:00Overcast Clouds34°C7 mph, SW100%10000m1009hPa37%
18-Jun-2024 00:00Overcast Clouds32°C7 mph, SW96%10000m1010hPa44%